sensor_id;sensor_type;location;lat;lon;timestamp;P1;durP1;ratioP1;P2;durP2;ratioP2
29214;SDS011;16252;49.816;7.964;2023-06-26T00:00:11;5.35;;;3.70;;
29214;SDS011;16252;49.816;7.964;2023-06-26T00:02:37;4.85;;;3.72;;
29214;SDS011;16252;49.816;7.964;2023-06-26T00:05:02;4.80;;;3.70;;
29214;SDS011;16252;49.816;7.964;2023-06-26T00:07:28;4.20;;;3.80;;
29214;SDS011;16252;49.816;7.964;2023-06-26T00:09:54;3.95;;;3.33;;
29214;SDS011;16252;49.816;7.964;2023-06-26T00:12:19;4.45;;;3.28;;
29214;SDS011;16252;49.816;7.964;2023-06-26T00:14:45;5.38;;;3.47;;
29214;SDS011;16252;49.816;7.964;2023-06-26T00:17:11;3.58;;;3.10;;
29214;SDS011;16252;49.816;7.964;2023-06-26T00:19:36;3.88;;;3.35;;
29214;SDS011;16252;49.816;7.964;2023-06-26T00:22:01;3.75;;;3.15;;
29214;SDS011;16252;49.816;7.964;2023-06-26T00:24:27;3.28;;;2.95;;
29214;SDS011;16252;49.816;7.964;2023-06-26T00:26:52;3.92;;;3.03;;
29214;SDS011;16252;49.816;7.964;2023-06-26T00:29:17;4.20;;;3.38;;
29214;SDS011;16252;49.816;7.964;2023-06-26T00:31:43;4.80;;;3.35;;
29214;SDS011;16252;49.816;7.964;2023-06-26T00:34:08;4.20;;;3.33;;
29214;SDS011;16252;49.816;7.964;2023-06-26T00:39:09;3.83;;;3.33;;
29214;SDS011;16252;49.816;7.964;2023-06-26T00:41:36;3.83;;;3.40;;
29214;SDS011;16252;49.816;7.964;2023-06-26T00:44:01;5.10;;;3.67;;
29214;SDS011;16252;49.816;7.964;2023-06-26T00:46:27;5.75;;;4.00;;
29214;SDS011;16252;49.816;7.964;2023-06-26T00:48:52;5.57;;;3.40;;
29214;SDS011;16252;49.816;7.964;2023-06-26T00:51:19;4.53;;;4.05;;
29214;SDS011;16252;49.816;7.964;2023-06-26T00:53:44;3.65;;;3.25;;
29214;SDS011;16252;49.816;7.964;2023-06-26T00:56:09;4.70;;;3.53;;
29214;SDS011;16252;49.816;7.964;2023-06-26T00:58:36;6.03;;;3.38;;
29214;SDS011;16252;49.816;7.964;2023-06-26T01:01:01;3.92;;;3.40;;
29214;SDS011;16252;49.816;7.964;2023-06-26T01:03:27;4.15;;;3.13;;
29214;SDS011;16252;49.816;7.964;2023-06-26T01:05:53;3.90;;;3.10;;
29214;SDS011;16252;49.816;7.964;2023-06-26T01:08:21;4.45;;;3.72;;
29214;SDS011;16252;49.816;7.964;2023-06-26T01:10:47;5.15;;;3.63;;
29214;SDS011;16252;49.816;7.964;2023-06-26T01:13:13;4.25;;;3.40;;
29214;SDS011;16252;49.816;7.964;2023-06-26T01:15:40;4.30;;;3.40;;
29214;SDS011;16252;49.816;7.964;2023-06-26T01:18:05;3.85;;;3.33;;
29214;SDS011;16252;49.816;7.964;2023-06-26T01:20:31;4.25;;;3.20;;
29214;SDS011;16252;49.816;7.964;2023-06-26T01:25:38;4.57;;;3.85;;
29214;SDS011;16252;49.816;7.964;2023-06-26T01:28:13;4.03;;;3.17;;
29214;SDS011;16252;49.816;7.964;2023-06-26T01:30:41;4.63;;;3.50;;
29214;SDS011;16252;49.816;7.964;2023-06-26T01:33:08;5.35;;;4.00;;
29214;SDS011;16252;49.816;7.964;2023-06-26T01:35:34;4.60;;;3.90;;
29214;SDS011;16252;49.816;7.964;2023-06-26T01:40:57;4.45;;;3.90;;
29214;SDS011;16252;49.816;7.964;2023-06-26T01:46:06;5.45;;;4.10;;
29214;SDS011;16252;49.816;7.964;2023-06-26T01:48:46;5.82;;;4.20;;
29214;SDS011;16252;49.816;7.964;2023-06-26T01:51:17;4.70;;;4.00;;
29214;SDS011;16252;49.816;7.964;2023-06-26T01:53:48;3.83;;;3.38;;
29214;SDS011;16252;49.816;7.964;2023-06-26T01:56:18;5.38;;;3.50;;
29214;SDS011;16252;49.816;7.964;2023-06-26T01:58:45;4.10;;;3.42;;
29214;SDS011;16252;49.816;7.964;2023-06-26T02:01:12;4.93;;;3.70;;
29214;SDS011;16252;49.816;7.964;2023-06-26T02:03:37;3.95;;;3.30;;
29214;SDS011;16252;49.816;7.964;2023-06-26T02:06:02;4.88;;;3.95;;
29214;SDS011;16252;49.816;7.964;2023-06-26T02:08:28;4.60;;;3.33;;
29214;SDS011;16252;49.816;7.964;2023-06-26T02:10:53;5.13;;;3.25;;
29214;SDS011;16252;49.816;7.964;2023-06-26T02:13:18;3.83;;;3.22;;
29214;SDS011;16252;49.816;7.964;2023-06-26T02:15:44;4.10;;;3.70;;
29214;SDS011;16252;49.816;7.964;2023-06-26T02:18:09;4.90;;;3.90;;
29214;SDS011;16252;49.816;7.964;2023-06-26T02:20:35;4.72;;;3.20;;
29214;SDS011;16252;49.816;7.964;2023-06-26T02:23:00;3.95;;;3.50;;
29214;SDS011;16252;49.816;7.964;2023-06-26T02:25:26;5.32;;;3.92;;
29214;SDS011;16252;49.816;7.964;2023-06-26T02:27:51;4.68;;;3.60;;
29214;SDS011;16252;49.816;7.964;2023-06-26T02:30:16;4.85;;;3.75;;
29214;SDS011;16252;49.816;7.964;2023-06-26T02:32:42;5.00;;;3.60;;
29214;SDS011;16252;49.816;7.964;2023-06-26T02:35:07;5.32;;;3.53;;
29214;SDS011;16252;49.816;7.964;2023-06-26T02:37:32;4.78;;;3.70;;
29214;SDS011;16252;49.816;7.964;2023-06-26T02:39:58;4.38;;;3.95;;
29214;SDS011;16252;49.816;7.964;2023-06-26T02:42:23;4.90;;;3.70;;
29214;SDS011;16252;49.816;7.964;2023-06-26T02:44:48;5.43;;;3.65;;
29214;SDS011;16252;49.816;7.964;2023-06-26T02:47:14;4.97;;;3.80;;
29214;SDS011;16252;49.816;7.964;2023-06-26T02:49:39;4.50;;;3.50;;
29214;SDS011;16252;49.816;7.964;2023-06-26T02:52:04;4.72;;;3.55;;
29214;SDS011;16252;49.816;7.964;2023-06-26T02:54:29;4.82;;;3.67;;
29214;SDS011;16252;49.816;7.964;2023-06-26T02:56:55;5.60;;;3.33;;
29214;SDS011;16252;49.816;7.964;2023-06-26T02:59:20;4.72;;;3.78;;
29214;SDS011;16252;49.816;7.964;2023-06-26T03:01:45;5.57;;;3.97;;
29214;SDS011;16252;49.816;7.964;2023-06-26T03:04:10;4.40;;;3.65;;
29214;SDS011;16252;49.816;7.964;2023-06-26T03:06:36;4.28;;;3.40;;
29214;SDS011;16252;49.816;7.964;2023-06-26T03:09:01;5.30;;;4.15;;
29214;SDS011;16252;49.816;7.964;2023-06-26T03:11:27;4.57;;;3.85;;
29214;SDS011;16252;49.816;7.964;2023-06-26T03:13:53;4.60;;;3.70;;
29214;SDS011;16252;49.816;7.964;2023-06-26T03:16:18;4.25;;;3.70;;
29214;SDS011;16252;49.816;7.964;2023-06-26T03:18:43;4.95;;;3.67;;
29214;SDS011;16252;49.816;7.964;2023-06-26T03:21:08;4.97;;;3.55;;
29214;SDS011;16252;49.816;7.964;2023-06-26T03:23:34;4.85;;;3.63;;
29214;SDS011;16252;49.816;7.964;2023-06-26T03:25:59;4.30;;;3.60;;
29214;SDS011;16252;49.816;7.964;2023-06-26T03:28:24;4.63;;;3.33;;
29214;SDS011;16252;49.816;7.964;2023-06-26T03:30:50;4.47;;;3.58;;
29214;SDS011;16252;49.816;7.964;2023-06-26T03:33:15;4.22;;;3.28;;
29214;SDS011;16252;49.816;7.964;2023-06-26T03:35:40;4.60;;;3.67;;
29214;SDS011;16252;49.816;7.964;2023-06-26T03:38:05;4.22;;;3.42;;
29214;SDS011;16252;49.816;7.964;2023-06-26T03:40:31;4.82;;;3.50;;
29214;SDS011;16252;49.816;7.964;2023-06-26T03:42:56;4.43;;;3.33;;
29214;SDS011;16252;49.816;7.964;2023-06-26T03:45:21;4.65;;;3.65;;
29214;SDS011;16252;49.816;7.964;2023-06-26T03:47:46;5.30;;;3.53;;
29214;SDS011;16252;49.816;7.964;2023-06-26T03:50:16;4.40;;;3.40;;
29214;SDS011;16252;49.816;7.964;2023-06-26T03:52:44;4.50;;;3.60;;
29214;SDS011;16252;49.816;7.964;2023-06-26T03:55:10;4.82;;;3.85;;
29214;SDS011;16252;49.816;7.964;2023-06-26T03:57:35;5.20;;;3.95;;
29214;SDS011;16252;49.816;7.964;2023-06-26T04:00:00;4.88;;;3.53;;
29214;SDS011;16252;49.816;7.964;2023-06-26T04:02:26;4.40;;;3.50;;
29214;SDS011;16252;49.816;7.964;2023-06-26T04:04:51;5.53;;;4.20;;
29214;SDS011;16252;49.816;7.964;2023-06-26T04:07:17;4.90;;;3.55;;
29214;SDS011;16252;49.816;7.964;2023-06-26T04:09:42;6.20;;;3.80;;
29214;SDS011;16252;49.816;7.964;2023-06-26T04:12:07;4.70;;;3.67;;
29214;SDS011;16252;49.816;7.964;2023-06-26T04:14:33;5.00;;;3.65;;
29214;SDS011;16252;49.816;7.964;2023-06-26T04:16:58;5.20;;;3.75;;
29214;SDS011;16252;49.816;7.964;2023-06-26T04:19:26;5.65;;;3.67;;
29214;SDS011;16252;49.816;7.964;2023-06-26T04:21:52;6.55;;;3.97;;
29214;SDS011;16252;49.816;7.964;2023-06-26T04:24:17;5.00;;;3.88;;
29214;SDS011;16252;49.816;7.964;2023-06-26T04:26:42;6.35;;;4.07;;
29214;SDS011;16252;49.816;7.964;2023-06-26T04:29:07;4.35;;;3.38;;
29214;SDS011;16252;49.816;7.964;2023-06-26T04:31:33;5.35;;;4.25;;
29214;SDS011;16252;49.816;7.964;2023-06-26T04:33:58;5.93;;;3.70;;
29214;SDS011;16252;49.816;7.964;2023-06-26T04:36:24;4.90;;;3.60;;
29214;SDS011;16252;49.816;7.964;2023-06-26T04:38:53;4.40;;;3.65;;
29214;SDS011;16252;49.816;7.964;2023-06-26T04:41:19;4.72;;;3.55;;
29214;SDS011;16252;49.816;7.964;2023-06-26T04:43:44;5.53;;;4.07;;
29214;SDS011;16252;49.816;7.964;2023-06-26T04:46:09;5.40;;;4.13;;
29214;SDS011;16252;49.816;7.964;2023-06-26T04:48:34;4.68;;;3.78;;
29214;SDS011;16252;49.816;7.964;2023-06-26T04:51:00;4.03;;;3.45;;
29214;SDS011;16252;49.816;7.964;2023-06-26T04:53:25;4.15;;;3.40;;
29214;SDS011;16252;49.816;7.964;2023-06-26T04:55:51;7.13;;;4.30;;
29214;SDS011;16252;49.816;7.964;2023-06-26T04:58:17;4.85;;;4.20;;
29214;SDS011;16252;49.816;7.964;2023-06-26T05:00:43;5.53;;;3.70;;
29214;SDS011;16252;49.816;7.964;2023-06-26T05:03:12;4.78;;;3.95;;
29214;SDS011;16252;49.816;7.964;2023-06-26T05:08:17;5.15;;;3.72;;
29214;SDS011;16252;49.816;7.964;2023-06-26T05:10:43;4.78;;;3.63;;
29214;SDS011;16252;49.816;7.964;2023-06-26T05:13:09;5.03;;;4.00;;
29214;SDS011;16252;49.816;7.964;2023-06-26T05:15:35;4.72;;;3.85;;
29214;SDS011;16252;49.816;7.964;2023-06-26T05:18:00;4.75;;;3.88;;
29214;SDS011;16252;49.816;7.964;2023-06-26T05:20:25;5.10;;;4.10;;
29214;SDS011;16252;49.816;7.964;2023-06-26T05:22:50;5.22;;;3.97;;
29214;SDS011;16252;49.816;7.964;2023-06-26T05:25:17;4.88;;;3.85;;
29214;SDS011;16252;49.816;7.964;2023-06-26T05:27:43;4.95;;;3.70;;
29214;SDS011;16252;49.816;7.964;2023-06-26T05:30:09;5.80;;;4.15;;
29214;SDS011;16252;49.816;7.964;2023-06-26T05:32:38;5.60;;;4.22;;
29214;SDS011;16252;49.816;7.964;2023-06-26T05:35:05;6.80;;;4.32;;
29214;SDS011;16252;49.816;7.964;2023-06-26T05:37:31;4.38;;;3.78;;
29214;SDS011;16252;49.816;7.964;2023-06-26T05:39:58;5.18;;;3.88;;
29214;SDS011;16252;49.816;7.964;2023-06-26T05:42:24;7.05;;;4.13;;
29214;SDS011;16252;49.816;7.964;2023-06-26T05:44:50;5.03;;;4.00;;
29214;SDS011;16252;49.816;7.964;2023-06-26T05:47:15;6.00;;;4.13;;
29214;SDS011;16252;49.816;7.964;2023-06-26T05:49:41;6.22;;;5.07;;
29214;SDS011;16252;49.816;7.964;2023-06-26T05:52:06;5.43;;;4.28;;
29214;SDS011;16252;49.816;7.964;2023-06-26T05:54:32;5.07;;;4.50;;
29214;SDS011;16252;49.816;7.964;2023-06-26T05:56:58;4.85;;;4.10;;
29214;SDS011;16252;49.816;7.964;2023-06-26T05:59:24;5.70;;;4.47;;
29214;SDS011;16252;49.816;7.964;2023-06-26T06:01:51;9.52;;;5.15;;
29214;SDS011;16252;49.816;7.964;2023-06-26T06:04:16;5.32;;;3.95;;
29214;SDS011;16252;49.816;7.964;2023-06-26T06:06:41;9.00;;;4.82;;
29214;SDS011;16252;49.816;7.964;2023-06-26T06:09:07;5.80;;;4.85;;
29214;SDS011;16252;49.816;7.964;2023-06-26T06:11:32;5.93;;;4.63;;
29214;SDS011;16252;49.816;7.964;2023-06-26T06:13:57;7.32;;;5.13;;
29214;SDS011;16252;49.816;7.964;2023-06-26T06:16:24;5.28;;;4.13;;
29214;SDS011;16252;49.816;7.964;2023-06-26T06:18:49;6.40;;;4.28;;
29214;SDS011;16252;49.816;7.964;2023-06-26T06:21:15;5.50;;;4.70;;
29214;SDS011;16252;49.816;7.964;2023-06-26T06:23:40;6.88;;;5.15;;
29214;SDS011;16252;49.816;7.964;2023-06-26T06:26:05;7.55;;;5.57;;
29214;SDS011;16252;49.816;7.964;2023-06-26T06:28:30;5.75;;;4.72;;
29214;SDS011;16252;49.816;7.964;2023-06-26T06:30:56;6.50;;;4.78;;
29214;SDS011;16252;49.816;7.964;2023-06-26T06:33:21;8.82;;;4.75;;
29214;SDS011;16252;49.816;7.964;2023-06-26T06:35:46;6.38;;;4.70;;
29214;SDS011;16252;49.816;7.964;2023-06-26T06:38:11;6.38;;;4.85;;
29214;SDS011;16252;49.816;7.964;2023-06-26T06:40:37;5.57;;;4.95;;
29214;SDS011;16252;49.816;7.964;2023-06-26T06:43:02;5.40;;;4.45;;
29214;SDS011;16252;49.816;7.964;2023-06-26T06:45:27;7.82;;;4.00;;
29214;SDS011;16252;49.816;7.964;2023-06-26T06:47:52;8.25;;;4.70;;
29214;SDS011;16252;49.816;7.964;2023-06-26T06:50:18;6.72;;;4.28;;
29214;SDS011;16252;49.816;7.964;2023-06-26T06:52:43;5.55;;;4.38;;
29214;SDS011;16252;49.816;7.964;2023-06-26T06:55:08;6.68;;;4.35;;
29214;SDS011;16252;49.816;7.964;2023-06-26T06:57:38;5.20;;;4.38;;
29214;SDS011;16252;49.816;7.964;2023-06-26T07:00:04;7.35;;;4.63;;
29214;SDS011;16252;49.816;7.964;2023-06-26T07:02:33;6.22;;;4.13;;
29214;SDS011;16252;49.816;7.964;2023-06-26T07:05:00;7.60;;;4.15;;
29214;SDS011;16252;49.816;7.964;2023-06-26T07:07:28;8.93;;;4.65;;
29214;SDS011;16252;49.816;7.964;2023-06-26T07:09:54;6.25;;;3.78;;
29214;SDS011;16252;49.816;7.964;2023-06-26T07:12:19;5.38;;;4.38;;
29214;SDS011;16252;49.816;7.964;2023-06-26T07:14:44;5.05;;;4.10;;
29214;SDS011;16252;49.816;7.964;2023-06-26T07:17:10;4.35;;;3.95;;
29214;SDS011;16252;49.816;7.964;2023-06-26T07:19:35;5.32;;;4.20;;
29214;SDS011;16252;49.816;7.964;2023-06-26T07:22:00;5.07;;;4.40;;
29214;SDS011;16252;49.816;7.964;2023-06-26T07:24:25;5.03;;;4.53;;
29214;SDS011;16252;49.816;7.964;2023-06-26T07:26:51;4.93;;;4.20;;
29214;SDS011;16252;49.816;7.964;2023-06-26T07:29:16;8.35;;;4.90;;
29214;SDS011;16252;49.816;7.964;2023-06-26T07:31:41;5.80;;;4.00;;
29214;SDS011;16252;49.816;7.964;2023-06-26T07:34:07;4.60;;;4.00;;
29214;SDS011;16252;49.816;7.964;2023-06-26T07:36:32;4.65;;;4.07;;
29214;SDS011;16252;49.816;7.964;2023-06-26T07:38:57;4.15;;;3.65;;
29214;SDS011;16252;49.816;7.964;2023-06-26T07:41:22;5.10;;;3.47;;
29214;SDS011;16252;49.816;7.964;2023-06-26T07:43:48;3.70;;;3.40;;
29214;SDS011;16252;49.816;7.964;2023-06-26T07:46:13;4.50;;;3.50;;
29214;SDS011;16252;49.816;7.964;2023-06-26T07:48:38;4.20;;;3.67;;
29214;SDS011;16252;49.816;7.964;2023-06-26T07:51:04;4.63;;;4.22;;
29214;SDS011;16252;49.816;7.964;2023-06-26T07:53:29;4.40;;;3.47;;
29214;SDS011;16252;49.816;7.964;2023-06-26T07:55:54;4.47;;;4.05;;
29214;SDS011;16252;49.816;7.964;2023-06-26T07:58:19;4.18;;;3.78;;
29214;SDS011;16252;49.816;7.964;2023-06-26T08:00:45;4.60;;;3.90;;
29214;SDS011;16252;49.816;7.964;2023-06-26T08:03:10;4.30;;;3.90;;
29214;SDS011;16252;49.816;7.964;2023-06-26T08:05:35;5.30;;;4.30;;
29214;SDS011;16252;49.816;7.964;2023-06-26T08:08:00;4.63;;;3.70;;
29214;SDS011;16252;49.816;7.964;2023-06-26T08:10:27;5.85;;;4.07;;
29214;SDS011;16252;49.816;7.964;2023-06-26T08:12:53;4.03;;;3.65;;
29214;SDS011;16252;49.816;7.964;2023-06-26T08:15:18;3.78;;;3.38;;
29214;SDS011;16252;49.816;7.964;2023-06-26T08:17:43;4.40;;;3.55;;
29214;SDS011;16252;49.816;7.964;2023-06-26T08:20:08;4.10;;;3.47;;
29214;SDS011;16252;49.816;7.964;2023-06-26T08:22:35;5.45;;;3.60;;
29214;SDS011;16252;49.816;7.964;2023-06-26T08:25:01;3.65;;;3.30;;
29214;SDS011;16252;49.816;7.964;2023-06-26T08:27:27;3.75;;;3.28;;
29214;SDS011;16252;49.816;7.964;2023-06-26T08:29:53;2.78;;;2.58;;
29214;SDS011;16252;49.816;7.964;2023-06-26T08:32:18;3.67;;;3.27;;
29214;SDS011;16252;49.816;7.964;2023-06-26T08:34:43;2.97;;;2.67;;
29214;SDS011;16252;49.816;7.964;2023-06-26T08:37:09;4.00;;;3.20;;
29214;SDS011;16252;49.816;7.964;2023-06-26T08:39:34;4.27;;;3.07;;
29214;SDS011;16252;49.816;7.964;2023-06-26T08:42:00;4.05;;;2.80;;
29214;SDS011;16252;49.816;7.964;2023-06-26T08:44:25;3.20;;;2.90;;
29214;SDS011;16252;49.816;7.964;2023-06-26T08:46:50;3.38;;;3.08;;
29214;SDS011;16252;49.816;7.964;2023-06-26T08:49:21;2.72;;;2.53;;
29214;SDS011;16252;49.816;7.964;2023-06-26T08:52:17;2.95;;;2.70;;
29214;SDS011;16252;49.816;7.964;2023-06-26T08:54:48;6.63;;;2.85;;
29214;SDS011;16252;49.816;7.964;2023-06-26T08:57:19;3.13;;;2.72;;
29214;SDS011;16252;49.816;7.964;2023-06-26T08:59:46;3.22;;;2.92;;
29214;SDS011;16252;49.816;7.964;2023-06-26T09:02:12;4.78;;;2.60;;
29214;SDS011;16252;49.816;7.964;2023-06-26T09:04:38;3.55;;;2.97;;
29214;SDS011;16252;49.816;7.964;2023-06-26T09:07:05;3.22;;;2.63;;
29214;SDS011;16252;49.816;7.964;2023-06-26T09:09:30;3.13;;;2.83;;
29214;SDS011;16252;49.816;7.964;2023-06-26T09:11:55;3.08;;;2.78;;
29214;SDS011;16252;49.816;7.964;2023-06-26T09:14:21;3.20;;;2.90;;
29214;SDS011;16252;49.816;7.964;2023-06-26T09:16:46;3.28;;;2.90;;
29214;SDS011;16252;49.816;7.964;2023-06-26T09:19:11;3.20;;;2.88;;
29214;SDS011;16252;49.816;7.964;2023-06-26T09:21:38;3.53;;;2.80;;
29214;SDS011;16252;49.816;7.964;2023-06-26T09:24:04;3.05;;;2.78;;
29214;SDS011;16252;49.816;7.964;2023-06-26T09:26:31;2.97;;;2.50;;
29214;SDS011;16252;49.816;7.964;2023-06-26T09:28:57;3.83;;;2.50;;
29214;SDS011;16252;49.816;7.964;2023-06-26T09:31:23;3.03;;;2.83;;
29214;SDS011;16252;49.816;7.964;2023-06-26T09:33:49;3.15;;;2.55;;
29214;SDS011;16252;49.816;7.964;2023-06-26T09:36:22;2.97;;;2.67;;
29214;SDS011;16252;49.816;7.964;2023-06-26T09:38:48;2.95;;;2.63;;
29214;SDS011;16252;49.816;7.964;2023-06-26T09:41:17;3.10;;;2.75;;
29214;SDS011;16252;49.816;7.964;2023-06-26T09:43:49;3.15;;;2.88;;
29214;SDS011;16252;49.816;7.964;2023-06-26T09:46:16;3.10;;;2.50;;
29214;SDS011;16252;49.816;7.964;2023-06-26T09:49:03;3.20;;;2.78;;
29214;SDS011;16252;49.816;7.964;2023-06-26T09:51:33;3.10;;;2.80;;
29214;SDS011;16252;49.816;7.964;2023-06-26T09:54:02;3.28;;;2.97;;
29214;SDS011;16252;49.816;7.964;2023-06-26T09:56:29;3.30;;;3.00;;
29214;SDS011;16252;49.816;7.964;2023-06-26T09:58:56;5.20;;;3.65;;
29214;SDS011;16252;49.816;7.964;2023-06-26T10:01:25;3.40;;;3.10;;
29214;SDS011;16252;49.816;7.964;2023-06-26T10:03:51;4.05;;;3.25;;
29214;SDS011;16252;49.816;7.964;2023-06-26T10:06:22;3.63;;;3.03;;
29214;SDS011;16252;49.816;7.964;2023-06-26T10:08:52;4.20;;;3.58;;
29214;SDS011;16252;49.816;7.964;2023-06-26T10:11:19;3.00;;;2.70;;
29214;SDS011;16252;49.816;7.964;2023-06-26T10:13:47;4.63;;;3.38;;
29214;SDS011;16252;49.816;7.964;2023-06-26T10:16:18;5.00;;;3.00;;
29214;SDS011;16252;49.816;7.964;2023-06-26T10:18:49;3.60;;;3.30;;
29214;SDS011;16252;49.816;7.964;2023-06-26T10:21:18;5.65;;;3.60;;
29214;SDS011;16252;49.816;7.964;2023-06-26T10:23:46;6.40;;;3.60;;
29214;SDS011;16252;49.816;7.964;2023-06-26T10:26:11;4.47;;;3.83;;
29214;SDS011;16252;49.816;7.964;2023-06-26T10:28:39;5.95;;;3.78;;
29214;SDS011;16252;49.816;7.964;2023-06-26T10:31:07;4.03;;;3.55;;
29214;SDS011;16252;49.816;7.964;2023-06-26T10:33:35;3.63;;;3.28;;
29214;SDS011;16252;49.816;7.964;2023-06-26T10:36:14;5.88;;;3.50;;
29214;SDS011;16252;49.816;7.964;2023-06-26T10:38:50;3.45;;;3.10;;
29214;SDS011;16252;49.816;7.964;2023-06-26T10:41:23;3.97;;;3.42;;
29214;SDS011;16252;49.816;7.964;2023-06-26T10:43:50;4.43;;;3.40;;
29214;SDS011;16252;49.816;7.964;2023-06-26T10:46:24;5.18;;;3.42;;
29214;SDS011;16252;49.816;7.964;2023-06-26T10:48:59;6.20;;;3.90;;
29214;SDS011;16252;49.816;7.964;2023-06-26T10:51:29;6.20;;;4.13;;
29214;SDS011;16252;49.816;7.964;2023-06-26T10:53:55;14.63;;;4.45;;
29214;SDS011;16252;49.816;7.964;2023-06-26T10:56:21;4.20;;;3.40;;
29214;SDS011;16252;49.816;7.964;2023-06-26T10:59:39;3.90;;;3.45;;
29214;SDS011;16252;49.816;7.964;2023-06-26T11:01:57;4.30;;;3.65;;
29214;SDS011;16252;49.816;7.964;2023-06-26T11:04:36;11.68;;;3.65;;
29214;SDS011;16252;49.816;7.964;2023-06-26T11:15:14;4.68;;;3.80;;
29214;SDS011;16252;49.816;7.964;2023-06-26T11:17:41;5.50;;;3.80;;
29214;SDS011;16252;49.816;7.964;2023-06-26T11:20:08;6.50;;;3.50;;
29214;SDS011;16252;49.816;7.964;2023-06-26T11:22:36;6.13;;;4.90;;
29214;SDS011;16252;49.816;7.964;2023-06-26T11:25:03;6.45;;;5.38;;
29214;SDS011;16252;49.816;7.964;2023-06-26T11:27:37;6.47;;;5.60;;
29214;SDS011;16252;49.816;7.964;2023-06-26T11:30:03;5.35;;;4.80;;
29214;SDS011;16252;49.816;7.964;2023-06-26T11:32:30;6.97;;;5.75;;
29214;SDS011;16252;49.816;7.964;2023-06-26T11:34:57;5.95;;;5.35;;
29214;SDS011;16252;49.816;7.964;2023-06-26T11:37:23;6.88;;;4.95;;
29214;SDS011;16252;49.816;7.964;2023-06-26T11:39:49;6.22;;;5.38;;
29214;SDS011;16252;49.816;7.964;2023-06-26T11:42:15;6.00;;;5.40;;
29214;SDS011;16252;49.816;7.964;2023-06-26T11:44:41;5.93;;;5.03;;
29214;SDS011;16252;49.816;7.964;2023-06-26T11:47:08;5.35;;;4.80;;
29214;SDS011;16252;49.816;7.964;2023-06-26T11:49:37;9.88;;;4.88;;
29214;SDS011;16252;49.816;7.964;2023-06-26T11:52:02;6.03;;;4.80;;
29214;SDS011;16252;49.816;7.964;2023-06-26T11:54:28;5.25;;;4.47;;
29214;SDS011;16252;49.816;7.964;2023-06-26T11:56:54;7.05;;;4.47;;
29214;SDS011;16252;49.816;7.964;2023-06-26T11:59:23;5.45;;;4.05;;
29214;SDS011;16252;49.816;7.964;2023-06-26T12:01:50;5.13;;;4.53;;
29214;SDS011;16252;49.816;7.964;2023-06-26T12:04:17;5.45;;;4.00;;
29214;SDS011;16252;49.816;7.964;2023-06-26T12:06:51;4.35;;;3.83;;
29214;SDS011;16252;49.816;7.964;2023-06-26T12:09:22;3.83;;;2.75;;
29214;SDS011;16252;49.816;7.964;2023-06-26T12:11:48;2.90;;;2.67;;
29214;SDS011;16252;49.816;7.964;2023-06-26T12:14:19;3.95;;;2.75;;
29214;SDS011;16252;49.816;7.964;2023-06-26T12:16:45;4.32;;;2.42;;
29214;SDS011;16252;49.816;7.964;2023-06-26T12:19:10;2.25;;;1.95;;
29214;SDS011;16252;49.816;7.964;2023-06-26T12:24:01;2.93;;;2.20;;
29214;SDS011;16252;49.816;7.964;2023-06-26T12:26:27;8.48;;;2.45;;
29214;SDS011;16252;49.816;7.964;2023-06-26T12:29:05;8.93;;;2.97;;
29214;SDS011;16252;49.816;7.964;2023-06-26T12:31:31;3.85;;;2.10;;
29214;SDS011;16252;49.816;7.964;2023-06-26T12:33:57;2.67;;;1.95;;
29214;SDS011;16252;49.816;7.964;2023-06-26T12:36:22;3.65;;;2.10;;
29214;SDS011;16252;49.816;7.964;2023-06-26T12:38:49;4.70;;;1.63;;
29214;SDS011;16252;49.816;7.964;2023-06-26T12:41:14;5.95;;;2.25;;
29214;SDS011;16252;49.816;7.964;2023-06-26T12:43:41;4.30;;;1.63;;
29214;SDS011;16252;49.816;7.964;2023-06-26T12:46:07;4.00;;;2.08;;
29214;SDS011;16252;49.816;7.964;2023-06-26T12:48:36;3.63;;;1.88;;
29214;SDS011;16252;49.816;7.964;2023-06-26T12:51:10;3.70;;;1.65;;
29214;SDS011;16252;49.816;7.964;2023-06-26T12:53:36;9.57;;;2.03;;
29214;SDS011;16252;49.816;7.964;2023-06-26T12:56:04;8.48;;;2.78;;
29214;SDS011;16252;49.816;7.964;2023-06-26T12:58:29;2.88;;;1.80;;
29214;SDS011;16252;49.816;7.964;2023-06-26T13:00:55;2.80;;;1.58;;
29214;SDS011;16252;49.816;7.964;2023-06-26T13:03:22;3.10;;;1.60;;
29214;SDS011;16252;49.816;7.964;2023-06-26T13:05:48;6.03;;;1.58;;
29214;SDS011;16252;49.816;7.964;2023-06-26T13:08:13;4.45;;;1.60;;
29214;SDS011;16252;49.816;7.964;2023-06-26T13:10:42;2.85;;;1.67;;
29214;SDS011;16252;49.816;7.964;2023-06-26T13:13:12;8.60;;;1.80;;
29214;SDS011;16252;49.816;7.964;2023-06-26T13:15:38;6.97;;;1.83;;
29214;SDS011;16252;49.816;7.964;2023-06-26T13:18:03;4.18;;;1.55;;
29214;SDS011;16252;49.816;7.964;2023-06-26T13:20:28;2.38;;;1.60;;
29214;SDS011;16252;49.816;7.964;2023-06-26T13:22:57;2.75;;;1.70;;
29214;SDS011;16252;49.816;7.964;2023-06-26T13:25:25;6.68;;;2.10;;
29214;SDS011;16252;49.816;7.964;2023-06-26T13:27:50;5.10;;;1.83;;
29214;SDS011;16252;49.816;7.964;2023-06-26T13:30:16;2.95;;;1.67;;
29214;SDS011;16252;49.816;7.964;2023-06-26T13:32:41;7.38;;;1.88;;
29214;SDS011;16252;49.816;7.964;2023-06-26T13:35:07;2.60;;;1.45;;
29214;SDS011;16252;49.816;7.964;2023-06-26T13:37:33;5.07;;;1.60;;
29214;SDS011;16252;49.816;7.964;2023-06-26T13:39:59;3.72;;;1.33;;
29214;SDS011;16252;49.816;7.964;2023-06-26T13:42:29;7.40;;;2.03;;
29214;SDS011;16252;49.816;7.964;2023-06-26T13:44:54;5.82;;;1.70;;
29214;SDS011;16252;49.816;7.964;2023-06-26T13:47:19;6.85;;;1.60;;
29214;SDS011;16252;49.816;7.964;2023-06-26T13:49:45;1.95;;;1.55;;
29214;SDS011;16252;49.816;7.964;2023-06-26T13:52:10;1.88;;;1.45;;
29214;SDS011;16252;49.816;7.964;2023-06-26T13:54:39;7.43;;;1.75;;
29214;SDS011;16252;49.816;7.964;2023-06-26T13:57:06;10.85;;;1.85;;
29214;SDS011;16252;49.816;7.964;2023-06-26T13:59:32;3.30;;;1.52;;
29214;SDS011;16252;49.816;7.964;2023-06-26T14:01:58;4.45;;;1.80;;
29214;SDS011;16252;49.816;7.964;2023-06-26T14:04:24;5.53;;;2.08;;
29214;SDS011;16252;49.816;7.964;2023-06-26T14:06:49;3.80;;;1.55;;
29214;SDS011;16252;49.816;7.964;2023-06-26T14:09:22;3.20;;;1.40;;
29214;SDS011;16252;49.816;7.964;2023-06-26T14:11:48;1.48;;;1.30;;
29214;SDS011;16252;49.816;7.964;2023-06-26T14:14:13;3.92;;;1.70;;
29214;SDS011;16252;49.816;7.964;2023-06-26T14:16:38;2.85;;;1.30;;
29214;SDS011;16252;49.816;7.964;2023-06-26T14:19:05;1.85;;;1.48;;
29214;SDS011;16252;49.816;7.964;2023-06-26T14:21:35;1.38;;;0.95;;
29214;SDS011;16252;49.816;7.964;2023-06-26T14:24:00;2.88;;;1.33;;
29214;SDS011;16252;49.816;7.964;2023-06-26T14:26:27;1.88;;;1.20;;
29214;SDS011;16252;49.816;7.964;2023-06-26T14:28:54;2.15;;;1.25;;
29214;SDS011;16252;49.816;7.964;2023-06-26T14:31:23;1.55;;;0.90;;
29214;SDS011;16252;49.816;7.964;2023-06-26T14:33:49;2.22;;;1.30;;
29214;SDS011;16252;49.816;7.964;2023-06-26T14:36:27;3.25;;;1.40;;
29214;SDS011;16252;49.816;7.964;2023-06-26T14:38:56;3.47;;;1.27;;
29214;SDS011;16252;49.816;7.964;2023-06-26T14:41:21;2.15;;;1.17;;
29214;SDS011;16252;49.816;7.964;2023-06-26T14:43:46;1.25;;;1.00;;
29214;SDS011;16252;49.816;7.964;2023-06-26T14:46:12;1.27;;;1.05;;
29214;SDS011;16252;49.816;7.964;2023-06-26T14:48:46;1.10;;;0.95;;
29214;SDS011;16252;49.816;7.964;2023-06-26T14:51:11;2.28;;;0.90;;
29214;SDS011;16252;49.816;7.964;2023-06-26T14:53:40;2.17;;;1.25;;
29214;SDS011;16252;49.816;7.964;2023-06-26T14:56:07;1.58;;;1.10;;
29214;SDS011;16252;49.816;7.964;2023-06-26T14:58:40;1.55;;;1.17;;
29214;SDS011;16252;49.816;7.964;2023-06-26T15:01:19;3.45;;;1.23;;
29214;SDS011;16252;49.816;7.964;2023-06-26T15:03:46;2.45;;;1.27;;
29214;SDS011;16252;49.816;7.964;2023-06-26T15:06:14;6.15;;;1.20;;
29214;SDS011;16252;49.816;7.964;2023-06-26T15:08:42;4.13;;;1.30;;